createdAt,value
2019-01-09T00:02:14.985Z,94.07
2019-01-09T00:04:44.094Z,93.03
2019-01-09T00:07:13.133Z,93.44
2019-01-09T00:09:42.157Z,93.23
2019-01-09T00:12:11.142Z,92.72
2019-01-09T00:14:40.216Z,92.74
2019-01-09T00:17:09.187Z,93.49
2019-01-09T00:19:38.285Z,94.08
2019-01-09T00:22:07.812Z,94.87
2019-01-09T00:24:36.991Z,94.10
2019-01-09T00:27:05.987Z,93.10
2019-01-09T00:29:35.575Z,93.74
2019-01-09T00:32:04.544Z,93.93
2019-01-09T00:34:33.655Z,95.43
2019-01-09T00:37:02.883Z,95.23
2019-01-09T00:39:32.224Z,94.40
2019-01-09T00:42:01.378Z,94.28
2019-01-09T00:44:30.406Z,94.72
2019-01-09T00:46:59.408Z,93.99
2019-01-09T00:49:28.456Z,93.84
2019-01-09T00:51:58.573Z,94.15
2019-01-09T00:54:27.690Z,94.68
2019-01-09T00:56:56.717Z,94.45
2019-01-09T00:59:25.814Z,93.42
2019-01-09T01:02:11.991Z,93.82
2019-01-09T01:04:55.144Z,93.60
2019-01-09T01:08:13.695Z,94.85
2019-01-09T01:11:25.654Z,94.40
2019-01-09T01:14:28.982Z,95.90
2019-01-09T01:17:44.139Z,95.48
2019-01-09T01:20:40.338Z,95.30
2019-01-09T01:24:01.979Z,96.15
2019-01-09T01:27:17.884Z,96.32
2019-01-09T01:30:19.971Z,96.55
2019-01-09T01:33:21.349Z,97.18
2019-01-09T01:36:53.015Z,96.41
2019-01-09T01:40:05.901Z,96.22
2019-01-09T01:43:06.680Z,95.99
2019-01-09T01:46:31.026Z,96.08
2019-01-09T01:49:44.360Z,96.56
2019-01-09T01:52:40.569Z,95.81
2019-01-09T01:55:48.960Z,96.37
2019-01-09T01:58:48.817Z,96.18
2019-01-09T02:01:50.043Z,95.73
2019-01-09T02:04:58.584Z,96.68
2019-01-09T02:07:59.226Z,95.69
2019-01-09T02:11:00.035Z,96.61
2019-01-09T02:14:03.584Z,96.62
2019-01-09T02:17:17.374Z,96.70
2019-01-09T02:20:25.017Z,97.01
2019-01-09T02:23:33.230Z,97.24
2019-01-09T02:26:39.151Z,97.15
2019-01-09T02:30:01.349Z,96.52
2019-01-09T02:32:33.990Z,96.81
2019-01-09T02:35:03.020Z,96.54
2019-01-09T02:37:32.117Z,96.69
2019-01-09T02:40:01.531Z,95.80
2019-01-09T02:42:30.568Z,95.74
2019-01-09T02:44:59.589Z,95.61
2019-01-09T02:47:28.620Z,95.22
2019-01-09T02:49:57.740Z,94.25
2019-01-09T02:52:26.782Z,94.57
2019-01-09T02:54:58.062Z,93.84
2019-01-09T02:57:27.106Z,94.00
2019-01-09T02:59:56.191Z,93.36
2019-01-09T03:02:25.231Z,93.82
2019-01-09T03:04:54.318Z,92.45
2019-01-09T03:07:23.407Z,92.02
2019-01-09T03:09:58.424Z,92.92
2019-01-09T03:12:27.793Z,92.70
2019-01-09T03:14:59.068Z,92.45
2019-01-09T03:17:28.120Z,91.19
2019-01-09T03:19:57.283Z,90.92
2019-01-09T03:22:26.358Z,92.91
2019-01-09T03:24:55.363Z,92.25
2019-01-09T03:27:24.386Z,92.56
2019-01-09T03:29:53.433Z,93.30
2019-01-09T03:32:22.472Z,93.31
2019-01-09T03:34:51.500Z,94.65
2019-01-09T03:37:20.637Z,93.69
2019-01-09T03:39:49.629Z,92.98
2019-01-09T03:42:18.776Z,91.82
2019-01-09T03:44:48.391Z,92.94
2019-01-09T03:47:17.969Z,92.71
2019-01-09T03:49:47.282Z,92.98
2019-01-09T03:52:16.679Z,91.23
2019-01-09T03:54:45.738Z,91.63
2019-01-09T03:57:14.801Z,91.09
2019-01-09T03:59:45.959Z,91.14
2019-01-09T04:02:14.978Z,91.22
2019-01-09T04:04:44.050Z,91.08
2019-01-09T04:07:13.084Z,90.37
2019-01-09T04:09:42.123Z,91.10
2019-01-09T04:12:11.268Z,90.74
2019-01-09T04:14:40.433Z,91.80
2019-01-09T04:17:09.503Z,91.04
2019-01-09T04:19:38.603Z,91.50
2019-01-09T04:22:07.734Z,90.76
2019-01-09T04:24:36.821Z,89.94
2019-01-09T04:27:05.915Z,90.17
2019-01-09T04:29:35.044Z,90.05
2019-01-09T04:32:04.054Z,91.23
2019-01-09T04:34:33.087Z,91.14
2019-01-09T04:37:03.715Z,90.56
2019-01-09T04:39:33.459Z,90.23
2019-01-09T04:42:02.466Z,89.52
2019-01-09T04:44:31.602Z,89.04
2019-01-09T04:47:00.968Z,90.19
2019-01-09T04:49:30.348Z,89.91
2019-01-09T04:52:00.257Z,88.86
2019-01-09T04:54:29.762Z,89.03
2019-01-09T04:56:59.338Z,89.27
2019-01-09T04:59:28.375Z,88.46
2019-01-09T05:01:57.445Z,87.73
2019-01-09T05:04:26.553Z,87.56
2019-01-09T05:07:00.482Z,87.94
2019-01-09T05:09:26.365Z,88.05
2019-01-09T05:11:55.451Z,87.19
2019-01-09T05:14:24.586Z,86.69
2019-01-09T05:16:53.750Z,86.44
2019-01-09T05:19:24.893Z,86.31
2019-01-09T05:21:53.935Z,85.93
2019-01-09T05:24:23.038Z,86.06
2019-01-09T05:26:52.111Z,86.23
2019-01-09T05:29:21.214Z,86.32
2019-01-09T05:31:50.300Z,84.06
2019-01-09T05:34:19.404Z,84.72
2019-01-09T05:36:48.483Z,86.17
2019-01-09T05:39:20.661Z,86.20
2019-01-09T05:41:49.956Z,87.26
2019-01-09T05:44:19.432Z,85.87
2019-01-09T05:46:49.136Z,86.05
2019-01-09T05:49:18.821Z,85.04
2019-01-09T05:51:48.509Z,86.44
2019-01-09T05:54:17.856Z,86.73
2019-01-09T05:56:46.940Z,87.47
2019-01-09T05:59:15.993Z,88.01
2019-01-09T06:01:45.478Z,87.81
2019-01-09T06:04:16.298Z,88.65
2019-01-09T06:06:45.322Z,89.01
2019-01-09T06:09:15.704Z,89.18
2019-01-09T06:11:44.745Z,89.06
2019-01-09T06:14:13.742Z,89.45
2019-01-09T06:16:42.965Z,89.53
2019-01-09T06:19:11.997Z,89.51
2019-01-09T06:21:41.056Z,89.28
2019-01-09T06:24:12.339Z,87.88
2019-01-09T06:26:41.409Z,88.04
2019-01-09T06:29:10.437Z,88.42
2019-01-09T06:31:39.496Z,87.31
2019-01-09T06:34:08.614Z,86.86
2019-01-09T06:36:37.761Z,86.74
2019-01-09T06:39:07.612Z,86.83
2019-01-09T06:41:36.927Z,85.92
2019-01-09T06:44:06.004Z,86.44
2019-01-09T06:46:35.208Z,85.67
2019-01-09T06:49:04.294Z,84.76
2019-01-09T06:51:34.598Z,85.15
2019-01-09T06:54:03.669Z,85.77
2019-01-09T06:56:32.658Z,84.80
2019-01-09T06:59:01.734Z,85.08
2019-01-09T07:01:30.799Z,84.73
2019-01-09T07:03:59.961Z,84.59
2019-01-09T07:06:31.274Z,84.63
2019-01-09T07:09:02.455Z,86.18
2019-01-09T07:11:31.633Z,85.63
2019-01-09T07:14:00.712Z,85.59
2019-01-09T07:16:30.875Z,84.51
2019-01-09T07:18:59.930Z,84.03
2019-01-09T07:21:28.891Z,83.97
2019-01-09T07:24:01.073Z,84.55
2019-01-09T07:26:30.150Z,83.38
2019-01-09T07:28:59.294Z,84.02
2019-01-09T07:31:28.296Z,85.86
2019-01-09T07:33:59.305Z,87.13
2019-01-09T07:36:28.439Z,88.16
2019-01-09T07:38:57.497Z,88.13
2019-01-09T07:41:28.778Z,88.48
2019-01-09T07:43:58.773Z,88.12
2019-01-09T07:46:27.832Z,87.96
2019-01-09T07:48:56.905Z,88.71
2019-01-09T07:51:25.997Z,88.76
2019-01-09T07:53:57.471Z,89.78
2019-01-09T07:56:26.099Z,88.92
2019-01-09T07:58:55.463Z,89.76
2019-01-09T08:01:24.449Z,90.18
2019-01-09T08:03:53.794Z,90.17
2019-01-09T08:06:22.912Z,89.76
2019-01-09T08:08:51.949Z,90.10
2019-01-09T08:11:20.943Z,90.66
2019-01-09T08:13:50.173Z,92.32
2019-01-09T08:16:19.200Z,93.47
2019-01-09T08:18:48.481Z,92.94
2019-01-09T08:21:18.956Z,92.26
2019-01-09T08:23:51.698Z,91.36
2019-01-09T08:26:20.872Z,92.64
2019-01-09T08:28:53.396Z,93.71
2019-01-09T08:31:22.706Z,93.67
2019-01-09T08:33:51.799Z,92.92
2019-01-09T08:36:20.878Z,91.96
2019-01-09T08:38:49.980Z,91.43
2019-01-09T08:41:19.272Z,90.54
2019-01-09T08:43:48.406Z,89.94
2019-01-09T08:46:20.121Z,89.42
2019-01-09T08:48:51.391Z,88.97
2019-01-09T08:51:20.659Z,89.89
2019-01-09T08:53:49.831Z,89.68
2019-01-09T08:56:18.963Z,88.86
2019-01-09T08:58:50.283Z,89.47
2019-01-09T09:01:20.498Z,89.12
2019-01-09T09:03:49.614Z,89.41
2019-01-09T09:06:19.950Z,89.93
2019-01-09T09:08:50.638Z,88.05
2019-01-09T09:11:21.233Z,88.13
2019-01-09T09:13:50.343Z,85.87
2019-01-09T09:16:19.541Z,85.38
2019-01-09T09:18:48.671Z,83.80
2019-01-09T09:21:17.719Z,84.09
2019-01-09T09:23:46.771Z,83.91
2019-01-09T09:26:16.055Z,85.32
2019-01-09T09:28:45.199Z,83.99
2019-01-09T09:31:14.359Z,83.49
2019-01-09T09:33:43.462Z,82.98
2019-01-09T09:36:13.635Z,83.11
2019-01-09T09:38:46.483Z,82.86
2019-01-09T09:41:15.624Z,82.26
2019-01-09T09:43:44.728Z,81.07
2019-01-09T09:46:14.121Z,80.07
2019-01-09T09:48:44.605Z,80.71
2019-01-09T09:51:18.499Z,80.25
2019-01-09T09:53:47.663Z,79.40
2019-01-09T09:56:16.691Z,78.88
2019-01-09T09:58:47.156Z,78.61
2019-01-09T10:01:18.294Z,78.95
2019-01-09T10:03:49.548Z,77.51
2019-01-09T10:06:20.222Z,77.92
2019-01-09T10:08:51.179Z,78.29
2019-01-09T10:11:20.224Z,77.71
2019-01-09T10:13:49.326Z,77.29
2019-01-09T10:16:18.658Z,77.39
2019-01-09T10:18:48.174Z,77.18
2019-01-09T10:21:17.549Z,76.51
2019-01-09T10:23:46.590Z,76.63
2019-01-09T10:26:15.657Z,77.19
2019-01-09T10:28:44.713Z,77.50
2019-01-09T10:31:13.750Z,77.05
2019-01-09T10:33:42.798Z,76.96
2019-01-09T10:36:11.859Z,75.63
2019-01-09T10:38:40.965Z,75.56
2019-01-09T10:41:10.034Z,75.16
2019-01-09T10:43:42.212Z,74.47
2019-01-09T10:46:11.231Z,73.60
2019-01-09T10:48:40.317Z,74.42
2019-01-09T10:51:09.331Z,74.47
2019-01-09T10:53:38.431Z,73.91
2019-01-09T10:56:07.492Z,73.53
2019-01-09T10:58:36.643Z,74.02
2019-01-09T11:01:05.884Z,72.75
2019-01-09T11:03:35.131Z,72.88
2019-01-09T11:06:04.804Z,73.01
2019-01-09T11:08:33.832Z,74.29
2019-01-09T11:11:02.807Z,73.95
2019-01-09T11:13:33.130Z,73.14
2019-01-09T11:16:03.115Z,71.58
2019-01-09T11:18:32.258Z,72.13
2019-01-09T11:21:03.601Z,72.99
2019-01-09T11:23:33.958Z,73.01
2019-01-09T11:26:04.713Z,72.90
2019-01-09T11:28:35.161Z,72.88
2019-01-09T11:31:06.237Z,74.24
2019-01-09T11:33:36.245Z,76.17
2019-01-09T11:36:07.427Z,77.44
2019-01-09T11:38:37.712Z,80.01
2019-01-09T11:41:06.746Z,80.03
2019-01-09T11:43:36.365Z,79.41
2019-01-09T11:46:05.433Z,76.92
2019-01-09T11:48:34.705Z,74.68
2019-01-09T11:51:03.996Z,76.63
2019-01-09T11:53:33.123Z,76.17
2019-01-09T11:56:02.141Z,75.07
2019-01-09T11:58:31.202Z,75.41
2019-01-09T12:01:00.186Z,70.43
2019-01-09T12:03:29.317Z,69.97
2019-01-09T12:06:19.208Z,68.62
2019-01-09T12:08:49.456Z,68.80
2019-01-09T12:11:18.659Z,65.38
2019-01-09T12:13:47.704Z,65.83
2019-01-09T12:16:18.141Z,64.61
2019-01-09T12:18:47.150Z,65.25
2019-01-09T12:21:16.906Z,63.52
2019-01-09T12:23:46.206Z,65.02
2019-01-09T12:26:15.292Z,64.34
2019-01-09T12:28:53.221Z,63.39
2019-01-09T12:31:15.237Z,65.06
2019-01-09T12:33:44.323Z,63.34
2019-01-09T12:36:13.352Z,63.96
2019-01-09T12:38:42.426Z,64.25
2019-01-09T12:41:11.409Z,64.63
2019-01-09T12:43:40.458Z,64.90
2019-01-09T12:46:09.419Z,65.74
2019-01-09T12:48:39.858Z,63.97
2019-01-09T12:51:09.160Z,65.57
2019-01-09T12:53:38.303Z,64.54
2019-01-09T12:56:07.451Z,64.62
2019-01-09T12:58:39.833Z,64.63
2019-01-09T13:01:09.021Z,66.02
2019-01-09T13:03:38.042Z,65.67
2019-01-09T13:06:07.458Z,65.91
2019-01-09T13:08:36.547Z,66.62
2019-01-09T13:11:05.988Z,67.12
2019-01-09T13:13:36.047Z,68.39
2019-01-09T13:16:05.556Z,69.58
2019-01-09T13:18:34.956Z,69.51
2019-01-09T13:21:04.551Z,69.29
2019-01-09T13:23:33.806Z,68.53
2019-01-09T13:26:02.943Z,68.26
2019-01-09T13:28:32.012Z,68.67
2019-01-09T13:31:02.487Z,68.24
2019-01-09T13:33:31.889Z,68.52
2019-01-09T13:36:02.608Z,69.39
2019-01-09T13:38:32.856Z,69.03
2019-01-09T13:41:03.376Z,67.14
2019-01-09T13:43:35.199Z,69.45
2019-01-09T13:46:06.227Z,67.26
2019-01-09T13:48:36.445Z,67.56
2019-01-09T13:51:05.659Z,69.02
2019-01-09T13:53:34.635Z,69.68
2019-01-09T13:56:04.038Z,71.80
2019-01-09T13:58:33.908Z,72.54
2019-01-09T14:01:03.544Z,75.93
2019-01-09T14:03:33.063Z,80.02
2019-01-09T14:06:02.125Z,83.33
2019-01-09T14:08:31.251Z,84.50
2019-01-09T14:11:00.297Z,85.70
2019-01-09T14:13:29.338Z,87.26
2019-01-09T14:15:58.450Z,87.12
2019-01-09T14:18:27.524Z,85.25
2019-01-09T14:20:56.559Z,85.27
2019-01-09T14:23:25.618Z,85.76
2019-01-09T14:25:54.723Z,86.27
2019-01-09T14:28:23.950Z,87.48
2019-01-09T14:30:53.181Z,86.42
2019-01-09T14:33:23.365Z,86.75
2019-01-09T14:35:53.375Z,87.27
2019-01-09T14:38:22.443Z,84.13
2019-01-09T14:40:51.546Z,85.44
2019-01-09T14:43:20.636Z,83.83
2019-01-09T14:45:49.659Z,80.02
2019-01-09T14:48:18.708Z,79.26
2019-01-09T14:50:48.876Z,78.68
2019-01-09T14:53:18.580Z,77.01
2019-01-09T14:55:47.621Z,76.86
2019-01-09T14:58:16.705Z,76.35
2019-01-09T15:00:45.728Z,75.83
2019-01-09T15:03:14.883Z,73.65
2019-01-09T15:05:46.081Z,73.66
2019-01-09T15:08:15.186Z,73.19
2019-01-09T15:10:44.334Z,73.48
2019-01-09T15:13:13.491Z,70.84
2019-01-09T15:15:42.545Z,71.94
2019-01-09T15:18:11.674Z,73.06
2019-01-09T15:20:42.400Z,72.17
2019-01-09T15:23:11.433Z,72.05
2019-01-09T15:25:40.478Z,71.60
2019-01-09T15:28:09.678Z,71.13
2019-01-09T15:30:40.427Z,70.84
2019-01-09T15:33:09.924Z,72.29
2019-01-09T15:35:40.511Z,72.86
2019-01-09T15:38:09.630Z,71.64
2019-01-09T15:40:38.660Z,70.09
2019-01-09T15:43:07.786Z,71.37
2019-01-09T15:45:37.919Z,72.30
2019-01-09T15:48:08.696Z,71.20
2019-01-09T15:50:39.443Z,70.75
2019-01-09T15:53:08.563Z,70.69
2019-01-09T15:55:39.831Z,68.71
2019-01-09T15:58:08.941Z,69.74
2019-01-09T16:00:44.675Z,71.01
2019-01-09T16:03:13.787Z,69.00
2019-01-09T16:05:42.795Z,70.05
2019-01-09T16:08:12.086Z,69.58
2019-01-09T16:10:41.175Z,70.33
2019-01-09T16:13:10.345Z,73.60
2019-01-09T16:15:39.380Z,76.37
2019-01-09T16:18:08.430Z,77.48
2019-01-09T16:20:37.617Z,78.63
2019-01-09T16:23:06.706Z,80.98
2019-01-09T16:25:35.739Z,81.25
2019-01-09T16:28:06.322Z,81.44
2019-01-09T16:30:44.123Z,80.75
2019-01-09T16:33:13.179Z,81.63
2019-01-09T16:35:43.338Z,80.55
2019-01-09T16:38:12.352Z,79.95
2019-01-09T16:40:41.449Z,79.86
2019-01-09T16:43:10.525Z,80.49
2019-01-09T16:45:39.552Z,82.69
2019-01-09T16:48:08.645Z,81.46
2019-01-09T16:50:37.726Z,81.50
2019-01-09T16:53:06.722Z,81.59
2019-01-09T16:55:35.828Z,81.35
2019-01-09T16:58:04.957Z,81.92
2019-01-09T17:00:35.153Z,80.92
2019-01-09T17:03:04.192Z,81.09
2019-01-09T17:05:33.330Z,80.38
2019-01-09T17:08:02.300Z,80.73
2019-01-09T17:10:32.637Z,80.21
2019-01-09T17:13:02.017Z,79.09
2019-01-09T17:15:31.148Z,77.29
2019-01-09T17:18:00.532Z,76.63
2019-01-09T17:20:29.590Z,75.13
2019-01-09T17:22:58.689Z,74.42
2019-01-09T17:25:27.701Z,75.42
2019-01-09T17:27:56.920Z,71.08
2019-01-09T17:30:27.444Z,72.46
2019-01-09T17:32:56.574Z,72.93
2019-01-09T17:35:25.589Z,72.48
2019-01-09T17:37:54.633Z,70.95
2019-01-09T17:40:23.675Z,73.52
2019-01-09T17:42:52.828Z,71.33
2019-01-09T17:45:21.968Z,71.91
2019-01-09T17:47:51.059Z,72.97
2019-01-09T17:50:27.404Z,72.67
2019-01-09T17:52:58.061Z,69.31
2019-01-09T17:55:27.625Z,71.31
2019-01-09T17:57:56.957Z,69.79
2019-01-09T18:00:42.602Z,69.78
2019-01-09T18:03:12.253Z,69.60
2019-01-09T18:05:41.407Z,71.28
2019-01-09T18:08:11.188Z,71.41
2019-01-09T18:10:40.205Z,70.08
2019-01-09T18:13:10.946Z,69.75
2019-01-09T18:15:39.983Z,72.01
2019-01-09T18:18:08.984Z,70.77
2019-01-09T18:20:38.384Z,70.85
2019-01-09T18:23:07.471Z,70.89
2019-01-09T18:25:38.576Z,71.69
2019-01-09T18:28:07.651Z,69.71
2019-01-09T18:30:52.762Z,68.32
2019-01-09T18:33:32.997Z,68.28
2019-01-09T18:36:31.190Z,68.17
2019-01-09T18:39:26.275Z,68.52
2019-01-09T18:42:22.526Z,67.99
2019-01-09T18:45:10.014Z,68.90
2019-01-09T18:48:24.789Z,68.36
2019-01-09T18:51:40.350Z,69.30
2019-01-09T18:54:09.372Z,68.01
2019-01-09T18:56:38.528Z,68.80
2019-01-09T18:59:07.487Z,67.70
2019-01-09T19:01:36.638Z,68.43
2019-01-09T19:04:05.804Z,68.33
2019-01-09T19:06:39.599Z,69.04
2019-01-09T19:09:10.464Z,67.90
2019-01-09T19:11:39.634Z,69.00
2019-01-09T19:14:10.394Z,69.08
2019-01-09T19:16:40.768Z,70.47
2019-01-09T19:19:09.770Z,72.21
2019-01-09T19:21:39.791Z,74.50
2019-01-09T19:24:08.927Z,73.96
2019-01-09T19:26:38.064Z,75.68
2019-01-09T19:29:07.130Z,76.02
2019-01-09T19:31:37.496Z,76.67
2019-01-09T19:34:06.940Z,77.95
2019-01-09T19:36:35.914Z,80.29
2019-01-09T19:39:07.987Z,80.37
2019-01-09T19:41:38.474Z,82.25
2019-01-09T19:44:07.532Z,84.01
2019-01-09T19:46:37.323Z,85.14
2019-01-09T19:49:06.638Z,86.48
2019-01-09T19:51:36.947Z,86.34
2019-01-09T19:54:06.558Z,86.76
2019-01-09T19:56:35.809Z,87.83
2019-01-09T19:59:05.269Z,88.28
2019-01-09T20:01:36.520Z,87.82
2019-01-09T20:04:05.192Z,87.93
2019-01-09T20:06:34.286Z,89.54
2019-01-09T20:09:05.484Z,89.63
2019-01-09T20:11:34.555Z,90.69
2019-01-09T20:14:03.638Z,90.92
2019-01-09T20:16:32.767Z,88.96
2019-01-09T20:19:01.804Z,86.87
2019-01-09T20:21:32.098Z,86.16
2019-01-09T20:24:01.270Z,85.18
2019-01-09T20:26:30.322Z,85.44
2019-01-09T20:29:01.520Z,83.14
2019-01-09T20:31:30.538Z,84.56
2019-01-09T20:33:59.787Z,83.81
2019-01-09T20:36:28.778Z,83.32
2019-01-09T20:38:57.825Z,82.78
2019-01-09T20:41:34.935Z,83.52
2019-01-09T20:43:57.638Z,83.72
2019-01-09T20:46:26.636Z,83.50
2019-01-09T20:48:55.723Z,82.42
2019-01-09T20:51:24.786Z,80.57
2019-01-09T20:53:53.830Z,81.72
2019-01-09T20:56:24.948Z,81.03
2019-01-09T20:58:53.963Z,81.50
2019-01-09T21:01:23.039Z,81.94
2019-01-09T21:03:52.011Z,81.71
2019-01-09T21:06:21.057Z,82.52
2019-01-09T21:08:59.250Z,84.00
2019-01-09T21:11:23.262Z,86.02
2019-01-09T21:13:52.267Z,86.39
2019-01-09T21:16:21.469Z,88.01
2019-01-09T21:18:50.501Z,88.60
2019-01-09T21:21:20.663Z,88.87
2019-01-09T21:23:49.637Z,89.62
2019-01-09T21:26:18.739Z,90.86
2019-01-09T21:28:47.736Z,90.72
2019-01-09T21:31:16.900Z,89.57
2019-01-09T21:33:45.923Z,89.91
2019-01-09T21:36:14.932Z,90.46
2019-01-09T21:38:44.190Z,90.23
2019-01-09T21:41:13.225Z,88.96
2019-01-09T21:43:42.280Z,88.67
2019-01-09T21:46:11.338Z,89.87
2019-01-09T21:48:41.505Z,90.63
2019-01-09T21:51:10.527Z,90.32
2019-01-09T21:53:39.648Z,89.95
2019-01-09T21:56:08.657Z,90.81
2019-01-09T21:58:37.607Z,89.18
2019-01-09T22:01:06.681Z,88.41
2019-01-09T22:03:35.709Z,88.91
2019-01-09T22:06:04.968Z,88.21
2019-01-09T22:08:34.010Z,88.83
2019-01-09T22:11:05.364Z,90.13
2019-01-09T22:13:34.539Z,89.60
2019-01-09T22:16:04.611Z,90.74
2019-01-09T22:18:34.250Z,91.80
2019-01-09T22:21:06.374Z,91.16
2019-01-09T22:23:35.688Z,91.71
2019-01-09T22:26:04.673Z,91.37
2019-01-09T22:28:33.711Z,92.15
2019-01-09T22:31:02.794Z,91.91
2019-01-09T22:33:31.836Z,92.08
2019-01-09T22:36:01.098Z,91.94
2019-01-09T22:38:30.183Z,91.05
2019-01-09T22:41:01.469Z,90.96
2019-01-09T22:43:30.568Z,90.79
2019-01-09T22:45:59.924Z,90.91
2019-01-09T22:48:28.963Z,90.25
2019-01-09T22:50:57.983Z,89.78
2019-01-09T22:53:27.085Z,89.09
2019-01-09T22:55:56.105Z,89.73
2019-01-09T22:58:25.151Z,88.89
2019-01-09T23:01:14.783Z,88.10
2019-01-09T23:03:44.296Z,86.88
2019-01-09T23:06:13.334Z,87.51
2019-01-09T23:08:42.452Z,87.00
2019-01-09T23:11:12.637Z,87.41
2019-01-09T23:13:41.789Z,88.32
2019-01-09T23:16:10.753Z,87.22
2019-01-09T23:18:41.217Z,86.72
2019-01-09T23:21:10.208Z,87.61
2019-01-09T23:23:39.313Z,87.56
2019-01-09T23:26:08.374Z,87.22
2019-01-09T23:28:39.706Z,87.95
2019-01-09T23:31:08.734Z,86.95
2019-01-09T23:33:37.964Z,84.83
2019-01-09T23:36:06.977Z,83.73
2019-01-09T23:38:38.004Z,84.21
2019-01-09T23:41:09.446Z,83.57
2019-01-09T23:43:39.649Z,82.68
2019-01-09T23:46:08.703Z,83.06
2019-01-09T23:48:38.097Z,83.03
2019-01-09T23:51:07.164Z,80.99
2019-01-09T23:53:36.212Z,82.47
2019-01-09T23:56:05.256Z,81.22
2019-01-09T23:58:34.351Z,81.38
